sensor_id;sensor_type;location;lat;lon;timestamp;temperature;humidity
45735;DHT22;31446;49.632;8.328;2023-06-24T00:05:01;17.90;99.90
45735;DHT22;31446;49.632;8.328;2023-06-24T00:20:10;17.90;99.90
45735;DHT22;31446;49.632;8.328;2023-06-24T00:35:18;18.10;99.90
45735;DHT22;31446;49.632;8.328;2023-06-24T00:50:27;17.90;99.90
45735;DHT22;31446;49.632;8.328;2023-06-24T01:05:33;17.80;99.90
45735;DHT22;31446;49.632;8.328;2023-06-24T01:20:45;17.70;99.90
45735;DHT22;31446;49.632;8.328;2023-06-24T01:35:55;17.70;99.90
45735;DHT22;31446;49.632;8.328;2023-06-24T01:51:08;17.50;99.90
45735;DHT22;31446;49.632;8.328;2023-06-24T02:06:16;17.30;99.90
45735;DHT22;31446;49.632;8.328;2023-06-24T02:21:24;17.40;99.90
45735;DHT22;31446;49.632;8.328;2023-06-24T02:36:31;17.40;99.90
45735;DHT22;31446;49.632;8.328;2023-06-24T02:51:39;17.20;99.90
45735;DHT22;31446;49.632;8.328;2023-06-24T03:06:45;16.80;99.90
45735;DHT22;31446;49.632;8.328;2023-06-24T03:21:52;16.50;99.90
45735;DHT22;31446;49.632;8.328;2023-06-24T03:36:59;16.70;99.90
45735;DHT22;31446;49.632;8.328;2023-06-24T03:52:07;16.90;99.90
45735;DHT22;31446;49.632;8.328;2023-06-24T04:07:14;17.20;99.90
45735;DHT22;31446;49.632;8.328;2023-06-24T04:22:30;18.00;99.90
45735;DHT22;31446;49.632;8.328;2023-06-24T04:37:39;17.40;99.90
45735;DHT22;31446;49.632;8.328;2023-06-24T04:52:47;17.80;99.90
45735;DHT22;31446;49.632;8.328;2023-06-24T05:07:57;19.50;99.90
45735;DHT22;31446;49.632;8.328;2023-06-24T05:23:04;20.70;99.90
45735;DHT22;31446;49.632;8.328;2023-06-24T05:38:10;21.00;99.90
45735;DHT22;31446;49.632;8.328;2023-06-24T05:53:17;20.70;99.90
45735;DHT22;31446;49.632;8.328;2023-06-24T06:08:23;22.30;99.90
45735;DHT22;31446;49.632;8.328;2023-06-24T06:23:30;21.30;99.90
45735;DHT22;31446;49.632;8.328;2023-06-24T06:38:36;21.60;99.90
45735;DHT22;31446;49.632;8.328;2023-06-24T06:53:43;21.70;99.90
45735;DHT22;31446;49.632;8.328;2023-06-24T07:08:55;22.10;99.90
45735;DHT22;31446;49.632;8.328;2023-06-24T07:24:01;22.20;99.90
45735;DHT22;31446;49.632;8.328;2023-06-24T08:57:08;25.00;99.90
45735;DHT22;31446;49.632;8.328;2023-06-24T09:12:18;25.60;99.80
45735;DHT22;31446;49.632;8.328;2023-06-24T09:27:24;26.50;98.80
45735;DHT22;31446;49.632;8.328;2023-06-24T09:42:33;27.40;96.30
45735;DHT22;31446;49.632;8.328;2023-06-24T09:57:41;27.50;95.60
45735;DHT22;31446;49.632;8.328;2023-06-24T10:12:48;28.00;94.00
45735;DHT22;31446;49.632;8.328;2023-06-24T10:27:56;28.40;92.10
45735;DHT22;31446;49.632;8.328;2023-06-24T10:43:25;28.80;90.90
45735;DHT22;31446;49.632;8.328;2023-06-24T10:58:32;28.20;89.30
45735;DHT22;31446;49.632;8.328;2023-06-24T11:13:41;28.10;86.80
45735;DHT22;31446;49.632;8.328;2023-06-24T11:28:50;29.10;85.30
45735;DHT22;31446;49.632;8.328;2023-06-24T11:43:57;29.40;83.00
45735;DHT22;31446;49.632;8.328;2023-06-24T11:59:04;28.50;82.70
45735;DHT22;31446;49.632;8.328;2023-06-24T12:14:11;29.20;81.80
45735;DHT22;31446;49.632;8.328;2023-06-24T12:29:17;29.90;81.10
45735;DHT22;31446;49.632;8.328;2023-06-24T12:44:24;28.80;81.70
45735;DHT22;31446;49.632;8.328;2023-06-24T12:59:30;29.50;80.20
45735;DHT22;31446;49.632;8.328;2023-06-24T13:14:37;29.40;76.20
45735;DHT22;31446;49.632;8.328;2023-06-24T13:29:43;30.40;76.20
45735;DHT22;31446;49.632;8.328;2023-06-24T13:44:50;30.60;75.10
45735;DHT22;31446;49.632;8.328;2023-06-24T13:59:56;30.50;74.60
45735;DHT22;31446;49.632;8.328;2023-06-24T14:15:03;29.90;74.50
45735;DHT22;31446;49.632;8.328;2023-06-24T14:30:11;30.10;74.10
45735;DHT22;31446;49.632;8.328;2023-06-24T14:45:17;30.10;73.90
45735;DHT22;31446;49.632;8.328;2023-06-24T15:00:23;29.80;72.50
45735;DHT22;31446;49.632;8.328;2023-06-24T15:15:30;29.80;72.60
45735;DHT22;31446;49.632;8.328;2023-06-24T15:30:36;29.60;71.00
45735;DHT22;31446;49.632;8.328;2023-06-24T15:45:43;29.50;70.10
45735;DHT22;31446;49.632;8.328;2023-06-24T16:00:50;29.40;73.10
45735;DHT22;31446;49.632;8.328;2023-06-24T16:15:56;29.40;71.40
45735;DHT22;31446;49.632;8.328;2023-06-24T16:31:03;30.30;71.10
45735;DHT22;31446;49.632;8.328;2023-06-24T16:46:09;31.70;70.40
45735;DHT22;31446;49.632;8.328;2023-06-24T17:01:16;33.10;70.30
45735;DHT22;31446;49.632;8.328;2023-06-24T17:16:23;33.30;68.60
45735;DHT22;31446;49.632;8.328;2023-06-24T17:31:40;34.70;67.70
45735;DHT22;31446;49.632;8.328;2023-06-24T17:47:00;32.60;68.30
45735;DHT22;31446;49.632;8.328;2023-06-24T18:02:17;33.50;68.20
45735;DHT22;31446;49.632;8.328;2023-06-24T18:17:27;33.20;67.50
45735;DHT22;31446;49.632;8.328;2023-06-24T18:47:41;31.80;68.60
45735;DHT22;31446;49.632;8.328;2023-06-24T19:02:52;31.10;69.60
45735;DHT22;31446;49.632;8.328;2023-06-24T19:17:59;29.20;71.70
45735;DHT22;31446;49.632;8.328;2023-06-24T19:33:10;27.50;74.20
45735;DHT22;31446;49.632;8.328;2023-06-24T19:48:17;26.50;76.00
45735;DHT22;31446;49.632;8.328;2023-06-24T20:03:33;26.00;77.20
45735;DHT22;31446;49.632;8.328;2023-06-24T20:34:14;24.90;80.90
45735;DHT22;31446;49.632;8.328;2023-06-24T20:49:24;24.30;84.40
45735;DHT22;31446;49.632;8.328;2023-06-24T21:04:34;24.10;85.10
45735;DHT22;31446;49.632;8.328;2023-06-24T21:35:10;23.20;89.40
45735;DHT22;31446;49.632;8.328;2023-06-24T21:50:17;22.60;91.40
45735;DHT22;31446;49.632;8.328;2023-06-24T22:05:23;22.10;92.70
45735;DHT22;31446;49.632;8.328;2023-06-24T22:20:30;21.70;93.70
45735;DHT22;31446;49.632;8.328;2023-06-24T22:35:36;21.40;94.70
45735;DHT22;31446;49.632;8.328;2023-06-24T22:50:43;21.20;95.60
45735;DHT22;31446;49.632;8.328;2023-06-24T23:05:53;20.90;96.90
45735;DHT22;31446;49.632;8.328;2023-06-24T23:21:01;20.60;98.40
45735;DHT22;31446;49.632;8.328;2023-06-24T23:36:09;20.30;99.90
45735;DHT22;31446;49.632;8.328;2023-06-24T23:51:16;20.00;99.90
